Time;durP1;ratioP1;P1;durP2;ratioP2;P2;SDS_P1;SDS_P2;PMS_P1;PMS_P2;Temp;Humidity;BMP_temperature;BMP_pressure;BME280_temperature;BME280_humidity;BME280_pressure;Samples;Min_cycle;Max_cycle;Signal;HPM_P1;HPM_P2
2022/02/07 00:01:56;;;;;;;12.03;9.20;;;;;;;12.08;47.94;101700.66;4933736;29;20135;-80
2022/02/07 00:04:28;;;;;;;18.97;10.67;;;;;;;11.88;47.56;101678.88;4929004;29;20139;-77
2022/02/07 00:06:55;;;;;;;11.97;8.23;;;;;;;12.12;47.41;101695.38;4933600;29;20126;-78
2022/02/07 00:09:22;;;;;;;21.40;11.23;;;;;;;12.01;47.56;101669.22;4932625;29;20134;-78
2022/02/07 00:11:51;;;;;;;18.47;12.07;;;;;;;12.27;47.36;101698.34;4934005;29;20136;-79
2022/02/07 00:14:18;;;;;;;25.90;12.05;;;;;;;12.32;46.71;101690.00;4933972;29;20467;-80
2022/02/07 00:16:48;;;;;;;24.10;14.93;;;;;;;12.50;46.81;101698.00;4935172;29;20515;-84
2022/02/07 00:19:20;;;;;;;24.05;15.00;;;;;;;12.48;46.73;101694.66;4934064;29;20583;-76
2022/02/07 00:21:48;;;;;;;28.47;15.30;;;;;;;12.55;46.80;101708.44;4923078;29;20476;-77
2022/02/07 00:24:15;;;;;;;22.80;13.93;;;;;;;12.45;46.86;101703.59;4919607;29;20060;-72
2022/02/07 00:26:42;;;;;;;23.50;13.53;;;;;;;12.31;46.98;101689.16;4931624;29;20135;-75
2022/02/07 00:29:09;;;;;;;21.47;12.17;;;;;;;12.30;47.12;101700.59;4935977;29;20505;-73
2022/02/07 00:31:36;;;;;;;20.57;11.87;;;;;;;12.36;47.14;101713.56;4932825;29;20164;-73
2022/02/07 00:34:15;;;;;;;25.97;13.73;;;;;;;12.33;47.08;101708.50;4960565;28;20056;-75
2022/02/07 00:36:42;;;;;;;28.37;14.67;;;;;;;12.28;46.93;101694.44;4931349;29;20139;-76
2022/02/07 00:39:16;;;;;;;25.43;12.87;;;;;;;11.80;47.22;101628.94;4911607;29;20542;-76
2022/02/07 00:41:49;;;;;;;21.93;12.83;;;;;;;11.82;47.96;101665.88;4936107;29;20056;-75
2022/02/07 00:44:18;;;;;;;18.17;10.87;;;;;;;11.99;47.99;101702.22;4932811;29;20640;-75
2022/02/07 00:46:49;;;;;;;16.85;9.25;;;;;;;11.84;47.78;101677.72;4932369;29;20058;-73
2022/02/07 00:49:17;;;;;;;21.93;11.97;;;;;;;11.65;47.51;101626.78;4934201;29;20130;-73
2022/02/07 00:51:43;;;;;;;24.90;14.63;;;;;;;12.26;47.38;101713.47;4933721;29;20135;-74
2022/02/07 00:54:10;;;;;;;33.90;16.13;;;;;;;12.14;47.14;101698.78;4942090;29;20078;-71
2022/02/07 00:56:37;;;;;;;33.90;18.50;;;;;;;12.13;47.25;101697.91;4958678;28;20047;-73
2022/02/07 00:59:04;;;;;;;28.93;19.27;;;;;;;11.92;47.49;101687.59;4941590;29;20052;-74
2022/02/07 01:01:37;;;;;;;30.83;19.67;;;;;;;12.00;47.57;101706.72;4932669;29;20075;-73
2022/02/07 01:04:04;;;;;;;40.37;21.30;;;;;;;11.68;48.47;101685.03;4933407;29;20119;-74
2022/02/07 01:06:31;;;;;;;31.27;19.80;;;;;;;11.55;48.46;101674.22;4934359;29;20051;-80
2022/02/07 01:09:40;;;;;;;33.27;19.97;;;;;;;11.66;48.60;101705.97;4932064;29;20127;-74
2022/02/07 01:15:00;;;;;;;30.53;19.07;;;;;;;11.40;48.84;101722.44;4930709;29;20518;-79
2022/02/07 01:52:52;;;;;;;20.43;13.07;;;;;;;10.79;49.94;101677.59;4929124;29;20159;-82
2022/02/07 01:57:56;;;;;;;18.40;11.23;;;;;;;10.65;49.76;101660.34;4931631;29;20048;-79
2022/02/07 02:00:23;;;;;;;16.00;10.80;;;;;;;10.75;49.67;101678.38;4931233;29;20138;-80
2022/02/07 02:02:50;;;;;;;22.70;14.10;;;;;;;10.78;49.71;101687.09;4934068;29;20566;-78
2022/02/07 02:05:19;;;;;;;16.60;10.43;;;;;;;10.60;49.33;101657.47;4936500;29;20558;-77
2022/02/07 02:07:48;;;;;;;28.70;15.90;;;;;;;10.75;49.58;101678.38;4934406;29;20066;-73
2022/02/07 02:10:16;;;;;;;23.17;15.02;;;;;;;10.58;49.68;101644.84;4935791;29;20079;-78
2022/02/07 02:13:06;;;;;;;24.57;14.90;;;;;;;10.81;49.53;101671.78;4927692;29;20154;-78
2022/02/07 02:15:42;;;;;;;;;;;;;;;10.72;49.55;101664.91;4932816;29;20151;-80
2022/02/07 02:45:35;;;;;;;10.33;6.10;;;;;;;11.14;47.27;101663.34;4928317;29;20138;-73
2022/02/07 02:48:09;;;;;;;10.10;6.57;;;;;;;11.12;47.22;101665.53;4931676;29;20062;-73
2022/02/07 02:50:36;;;;;;;13.77;8.50;;;;;;;11.32;47.05;101669.75;4933986;29;20451;-75
2022/02/07 02:53:09;;;;;;;12.23;7.73;;;;;;;11.39;46.87;101667.59;4934259;29;20130;-75
2022/02/07 02:55:38;;;;;;;12.03;8.27;;;;;;;11.43;46.68;101671.56;4940768;29;20083;-77
2022/02/07 02:58:07;;;;;;;17.90;9.68;;;;;;;11.30;46.66;101649.56;4936321;29;20056;-77
2022/02/07 03:00:35;;;;;;;17.63;9.27;;;;;;;11.35;46.87;101680.38;4932194;29;20131;-75
2022/02/07 03:03:03;;;;;;;19.70;11.63;;;;;;;11.29;47.21;101692.63;4936104;29;20406;-74
2022/02/07 03:05:30;;;;;;;18.23;10.20;;;;;;;11.08;47.25;101658.78;4935619;29;20065;-79
2022/02/07 03:07:57;;;;;;;15.27;9.33;;;;;;;10.54;47.31;101585.88;4934422;29;20079;-79
2022/02/07 03:10:29;;;;;;;12.87;8.13;;;;;;;10.93;47.16;101643.72;4935257;29;20139;-79
2022/02/07 03:13:30;;;;;;;11.40;7.87;;;;;;;11.14;47.33;101677.31;4936738;28;20093;-79
2022/02/07 03:18:32;;;;;;;11.17;7.40;;;;;;;11.12;47.11;101662.75;4931948;29;20060;-84
2022/02/07 03:21:00;;;;;;;16.20;7.40;;;;;;;11.10;46.93;101662.16;4933889;29;20083;-84
2022/02/07 03:23:28;;;;;;;15.27;8.87;;;;;;;11.19;46.90;101653.34;4935085;29;20047;-84
2022/02/07 03:25:55;;;;;;;12.87;7.00;;;;;;;10.77;46.61;101593.22;4937097;29;20435;-84
2022/02/07 03:28:25;;;;;;;11.37;7.80;;;;;;;11.02;46.85;101625.41;4936190;29;20135;-81
2022/02/07 03:30:52;;;;;;;12.40;6.15;;;;;;;11.19;46.57;101654.19;4929253;29;20095;-81
2022/02/07 03:33:19;;;;;;;13.40;7.13;;;;;;;11.25;46.58;101664.34;4958807;28;20066;-82
2022/02/07 03:35:46;;;;;;;14.57;7.07;;;;;;;11.21;46.55;101651.09;4956785;28;20072;-81
2022/02/07 03:38:13;;;;;;;9.43;6.90;;;;;;;11.23;46.61;101651.72;4952937;29;20052;-81
2022/02/07 03:40:41;;;;;;;18.50;8.70;;;;;;;10.91;46.75;101602.06;4947914;29;20067;-79
2022/02/07 03:43:07;;;;;;;13.40;7.73;;;;;;;11.17;46.72;101647.16;4932776;29;20144;-80
2022/02/07 03:45:34;;;;;;;9.70;6.63;;;;;;;10.77;46.89;101583.94;4929220;29;20575;-80
2022/02/07 03:48:01;;;;;;;11.67;5.70;;;;;;;11.09;46.74;101654.88;4934336;29;20451;-82
2022/02/07 03:50:33;;;;;;;10.57;6.27;;;;;;;11.06;46.74;101641.41;4931464;29;20503;-81
2022/02/07 03:53:01;;;;;;;10.00;5.63;;;;;;;11.03;46.89;101655.06;4933754;29;20559;-84
2022/02/07 03:55:28;;;;;;;13.47;6.17;;;;;;;10.99;46.62;101643.53;4934460;29;20466;-84
2022/02/07 03:57:55;;;;;;;11.77;7.37;;;;;;;11.07;46.65;101661.81;4931796;28;20055;-84
2022/02/07 04:00:22;;;;;;;17.83;8.00;;;;;;;10.97;46.71;101634.56;4934853;29;20106;-78
2022/02/07 04:02:52;;;;;;;14.20;7.10;;;;;;;10.79;46.56;101613.34;4933196;29;20051;-78
2022/02/07 04:07:53;;;;;;;10.57;5.25;;;;;;;10.98;46.35;101650.25;4932206;29;20136;-79
2022/02/07 04:10:21;;;;;;;12.13;6.30;;;;;;;10.97;46.63;101628.97;4934892;29;20598;-80
2022/02/07 04:12:57;;;;;;;9.17;5.77;;;;;;;11.03;46.42;101644.72;4925867;29;20142;-76
2022/02/07 04:15:24;;;;;;;7.10;4.77;;;;;;;11.00;46.41;101639.63;4931299;29;20094;-75
2022/02/07 04:17:57;;;;;;;5.70;3.50;;;;;;;10.98;46.53;101641.00;4932884;29;20138;-76
2022/02/07 04:20:23;;;;;;;7.87;4.70;;;;;;;11.02;46.20;101631.84;4931152;29;20131;-76
2022/02/07 04:22:51;;;;;;;9.03;4.93;;;;;;;11.06;45.94;101626.59;4926544;29;20133;-75
2022/02/07 04:25:22;;;;;;;8.97;5.30;;;;;;;11.12;45.83;101625.56;4933670;29;20062;-75
2022/02/07 04:27:49;;;;;;;7.95;4.55;;;;;;;11.07;45.53;101595.56;4928873;29;20130;-77
2022/02/07 04:30:18;;;;;;;9.15;5.38;;;;;;;11.34;45.46;101633.97;4928549;29;20051;-79
2022/02/07 04:32:46;;;;;;;11.03;6.43;;;;;;;11.38;45.47;101632.31;4928429;29;20052;-78
2022/02/07 04:35:13;;;;;;;10.00;6.50;;;;;;;11.33;45.40;101635.91;4928296;29;20481;-79
2022/02/07 04:37:40;;;;;;;10.20;5.47;;;;;;;11.27;45.53;101633.31;4932123;29;20114;-78
2022/02/07 04:40:07;;;;;;;7.80;4.50;;;;;;;11.20;45.55;101618.66;4915486;29;20103;-80
2022/02/07 04:42:34;;;;;;;8.37;5.07;;;;;;;11.17;45.66;101621.97;4928645;29;20158;-78
2022/02/07 04:47:59;;;;;;;8.23;5.67;;;;;;;11.01;45.55;101602.22;4929442;29;20130;-78
2022/02/07 04:50:40;;;;;;;8.97;5.27;;;;;;;11.05;45.50;101628.53;4930753;29;20047;-74
2022/02/07 04:53:21;;;;;;;11.37;6.13;;;;;;;10.78;45.70;101586.50;4930639;29;20052;-75
2022/02/07 05:03:55;;;;;;;7.28;3.92;;;;;;;10.74;45.99;101620.81;4929423;29;20142;-77
2022/02/07 05:14:42;;;;;;;3.53;2.23;;;;;;;10.73;45.42;101611.56;4936363;29;20139;-76
2022/02/07 05:17:10;;;;;;;;;;;;;;;10.64;44.78;101613.97;4935927;29;20123;-80
2022/02/07 05:19:37;;;;;;;1.90;1.30;;;;;;;10.83;44.17;101627.63;4929928;29;20009;-79
2022/02/07 05:22:04;;;;;;;2.57;1.67;;;;;;;10.85;43.20;101583.53;4935058;29;20139;-78
2022/02/07 05:24:31;;;;;;;4.60;2.20;;;;;;;11.32;43.10;101620.25;4935246;29;20053;-75
2022/02/07 05:26:58;;;;;;;3.33;2.10;;;;;;;11.41;42.84;101601.03;4940193;29;20426;-79
2022/02/07 05:29:25;;;;;;;6.73;2.30;;;;;;;11.26;42.72;101582.13;4933589;29;20090;-77
2022/02/07 05:31:52;;;;;;;3.50;2.03;;;;;;;11.48;42.63;101615.69;4937614;29;20083;-77
2022/02/07 05:34:19;;;;;;;7.00;3.10;;;;;;;11.57;42.17;101610.47;4936774;29;20581;-78
2022/02/07 05:36:47;;;;;;;4.20;3.17;;;;;;;11.35;42.34;101572.19;4935052;29;20151;-80
2022/02/07 05:39:18;;;;;;;4.40;2.60;;;;;;;11.79;42.29;101613.25;4929328;29;20075;-79
2022/02/07 05:41:50;;;;;;;8.03;4.10;;;;;;;11.78;42.46;101614.34;4931857;29;20146;-78
2022/02/07 05:44:17;;;;;;;5.47;3.00;;;;;;;11.81;42.29;101623.06;4930197;29;20147;-73
2022/02/07 05:46:44;;;;;;;6.70;3.17;;;;;;;11.73;42.17;101611.50;4934660;29;20056;-82
2022/02/07 05:49:11;;;;;;;5.73;3.33;;;;;;;11.71;41.87;101606.16;4939400;29;20063;-83
2022/02/07 05:51:38;;;;;;;5.10;3.13;;;;;;;11.81;41.89;101613.84;4930020;29;20484;-84
2022/02/07 05:54:05;;;;;;;4.07;2.53;;;;;;;11.76;41.96;101630.56;4938356;29;20111;-84
2022/02/07 05:56:32;;;;;;;5.47;2.70;;;;;;;11.48;41.78;101590.50;4968075;28;20052;-84
2022/02/07 05:58:58;;;;;;;4.33;2.63;;;;;;;11.67;41.38;101606.97;4932033;29;20462;-76
2022/02/07 06:01:28;;;;;;;4.53;2.50;;;;;;;11.78;41.63;101622.75;4932803;29;20054;-77
2022/02/07 06:03:54;;;;;;;5.33;2.10;;;;;;;11.81;41.92;101623.06;4933921;29;20138;-78
2022/02/07 06:06:22;;;;;;;5.07;2.90;;;;;;;11.66;41.92;101608.03;4936273;29;20056;-75
2022/02/07 06:08:49;;;;;;;5.27;2.87;;;;;;;11.42;41.71;101601.88;4937103;29;20051;-75
2022/02/07 06:11:16;;;;;;;5.23;2.63;;;;;;;11.47;41.63;101622.38;4956277;28;20055;-74
2022/02/07 06:13:43;;;;;;;4.33;1.67;;;;;;;11.29;41.43;101592.81;4956283;29;20051;-73
2022/02/07 06:16:14;;;;;;;4.23;2.00;;;;;;;11.37;41.54;101608.28;4927945;29;20143;-74
2022/02/07 06:18:41;;;;;;;3.17;2.23;;;;;;;11.47;41.54;101610.34;4936404;29;20055;-73
2022/02/07 06:21:11;;;;;;;3.83;1.97;;;;;;;11.61;41.42;101611.66;4933307;29;20139;-74
2022/02/07 06:23:39;;;;;;;3.70;1.85;;;;;;;11.61;41.34;101608.84;4928930;29;20054;-77
2022/02/07 06:26:06;;;;;;;4.10;2.43;;;;;;;11.56;41.32;101612.44;4960340;28;20131;-76
2022/02/07 06:28:33;;;;;;;3.67;2.50;;;;;;;11.55;41.47;101624.72;4940425;29;20079;-74
2022/02/07 06:31:00;;;;;;;4.27;1.90;;;;;;;11.59;41.33;101625.91;4934239;29;20131;-76
2022/02/07 06:33:26;;;;;;;2.67;1.37;;;;;;;11.52;41.28;101602.88;4936681;29;20134;-74
2022/02/07 06:35:54;;;;;;;3.83;1.40;;;;;;;11.56;41.23;101597.59;4935035;29;20142;-77
2022/02/07 06:38:21;;;;;;;1.63;0.90;;;;;;;11.62;41.29;101604.94;4927390;29;20146;-71
2022/02/07 06:40:48;;;;;;;2.20;1.50;;;;;;;11.68;40.82;101612.28;4933611;29;20046;-75
2022/02/07 06:43:15;;;;;;;1.77;1.40;;;;;;;11.59;40.32;101600.72;4930222;29;20048;-76
2022/02/07 06:45:41;;;;;;;4.53;2.47;;;;;;;11.66;39.97;101592.13;4926684;29;20138;-72
2022/02/07 06:48:08;;;;;;;0.73;0.70;;;;;;;11.74;39.31;101610.41;4927576;29;20077;-73
2022/02/07 06:50:35;;;;;;;2.77;1.67;;;;;;;11.73;38.87;101605.91;4922484;29;20043;-69
2022/02/07 06:53:02;;;;;;;2.40;1.50;;;;;;;11.82;38.39;101613.56;4923897;29;20083;-71
2022/02/07 06:55:29;;;;;;;3.13;1.23;;;;;;;11.79;38.41;101607.63;4929732;29;20074;-68
2022/02/07 06:57:56;;;;;;;3.00;1.60;;;;;;;11.93;37.80;101625.78;4944038;29;20139;-69
2022/02/07 07:00:23;;;;;;;1.07;0.70;;;;;;;11.86;37.62;101608.31;4936387;29;20094;-68
2022/02/07 07:02:50;;;;;;;1.30;0.63;;;;;;;11.97;37.52;101628.88;4937079;29;20071;-68
2022/02/07 07:05:21;;;;;;;3.53;1.40;;;;;;;11.98;37.20;101627.75;4941826;29;20119;-68
2022/02/07 07:07:48;;;;;;;5.10;0.87;;;;;;;12.06;37.10;101627.28;4941827;29;20105;-68
2022/02/07 07:10:17;;;;;;;3.77;2.17;;;;;;;12.09;36.84;101624.78;4940971;29;20075;-68
2022/02/07 07:12:48;;;;;;;0.73;0.60;;;;;;;12.07;36.66;101618.63;4947075;29;20048;-68
2022/02/07 07:15:27;;;;;;;1.17;0.80;;;;;;;12.18;36.34;101635.53;4953227;29;20040;-68
2022/02/07 07:17:54;;;;;;;1.83;1.30;;;;;;;12.21;36.07;101638.66;4957034;29;20039;-68
2022/02/07 07:20:21;;;;;;;1.13;0.73;;;;;;;12.16;36.06;101626.53;4946464;29;20044;-68
2022/02/07 07:22:47;;;;;;;1.83;1.40;;;;;;;12.22;35.98;101633.88;4953678;29;20036;-68
2022/02/07 07:25:16;;;;;;;3.20;1.90;;;;;;;12.25;35.91;101644.56;4942344;29;20075;-68
2022/02/07 07:28:00;;;;;;;2.73;1.50;;;;;;;12.28;35.85;101627.22;4941440;29;20111;-69
2022/02/07 07:30:31;;;;;;;0.50;0.50;;;;;;;12.17;36.25;101647.81;4945323;29;20048;-67
2022/02/07 07:33:03;;;;;;;2.40;1.60;;;;;;;12.08;36.26;101650.28;4932139;29;20085;-67
2022/02/07 07:35:30;;;;;;;2.37;1.53;;;;;;;12.05;36.56;101656.38;4921800;29;20186;-67
2022/02/07 07:37:57;;;;;;;0.73;0.60;;;;;;;11.76;36.81;101658.53;4939049;28;21308;-68
2022/02/07 07:40:24;;;;;;;0.80;0.80;;;;;;;11.62;37.21;101653.38;4927201;29;20182;-67
2022/02/07 07:42:54;;;;;;;2.63;1.63;;;;;;;11.55;37.37;101654.66;4922721;29;20059;-67
2022/02/07 07:45:25;;;;;;;1.33;1.23;;;;;;;11.58;37.21;101668.94;4923427;29;20154;-68
2022/02/07 07:48:05;;;;;;;1.20;1.10;;;;;;;11.63;37.57;101671.84;4926778;29;20079;-68
2022/02/07 08:01:22;;;;;;;0.60;0.60;;;;;;;11.79;37.10;101672.00;5033609;28;20534;-68
2022/02/07 08:03:52;;;;;;;2.47;2.00;;;;;;;12.14;37.08;101688.41;5034658;28;20141;-68
2022/02/07 08:06:26;;;;;;;2.60;2.13;;;;;;;12.40;36.81;101672.69;5039797;28;20496;-71
2022/02/07 08:11:30;;;;;;;3.17;2.27;;;;;;;13.41;36.36;101699.88;5044838;28;20485;-68
2022/02/07 08:14:00;;;;;;;7.80;1.93;;;;;;;13.74;35.73;101692.16;5043454;28;20053;-68
2022/02/07 08:16:28;;;;;;;4.70;2.00;;;;;;;14.02;35.04;101690.03;5044846;28;20053;-69
2022/02/07 08:19:01;;;;;;;5.70;1.47;;;;;;;14.39;34.84;101696.31;5048879;28;20085;-69
2022/02/07 08:21:35;;;;;;;4.03;2.00;;;;;;;14.59;34.45;101675.00;5044911;28;20061;-69
2022/02/07 08:24:04;;;;;;;5.37;2.00;;;;;;;14.89;33.80;101694.69;5039352;28;20045;-69
2022/02/07 08:26:31;;;;;;;3.40;1.55;;;;;;;15.04;33.42;101681.72;5036326;28;20069;-69
2022/02/07 08:28:58;;;;;;;3.70;2.17;;;;;;;15.48;33.10;101712.88;5039041;28;20063;-69
2022/02/07 08:31:25;;;;;;;2.30;1.87;;;;;;;15.69;33.22;101693.13;5046484;28;20060;-69
2022/02/07 08:33:52;;;;;;;2.73;1.67;;;;;;;15.88;32.15;101694.19;5031939;28;20233;-68
2022/02/07 08:36:21;;;;;;;6.50;2.10;;;;;;;16.28;31.90;101710.06;5036957;28;20056;-69
2022/02/07 08:38:48;;;;;;;2.33;1.50;;;;;;;16.71;31.56;101712.28;5041414;28;20209;-69
2022/02/07 08:41:15;;;;;;;3.23;2.00;;;;;;;17.05;31.69;101689.75;5036809;28;20130;-68
2022/02/07 08:43:42;;;;;;;6.33;3.50;;;;;;;17.62;31.06;101707.78;5035620;28;20145;-69
2022/02/07 08:46:09;;;;;;;5.40;2.33;;;;;;;18.11;30.81;101709.44;5037052;28;20104;-69
2022/02/07 08:48:36;;;;;;;5.70;2.70;;;;;;;18.50;30.90;101708.34;5042622;28;20084;-68
2022/02/07 08:51:05;;;;;;;3.60;2.45;;;;;;;19.00;31.23;101711.50;5050902;28;20074;-68
2022/02/07 08:53:38;;;;;;;10.50;5.60;;;;;;;19.44;30.92;101715.81;5057012;28;20052;-69
2022/02/07 08:56:07;;;;;;;5.97;4.15;;;;;;;19.86;30.83;101723.25;5032111;28;20409;-69
2022/02/07 08:58:36;;;;;;;5.68;3.85;;;;;;;20.30;30.47;101706.69;5033029;28;20053;-69
2022/02/07 09:01:16;;;;;;;8.20;4.30;;;;;;;20.65;29.83;101704.19;5031538;28;20046;-70
2022/02/07 09:11:11;;;;;;;4.13;2.40;;;;;;;22.05;28.11;101707.53;5016386;28;20477;-69
2022/02/07 09:13:41;;;;;;;4.97;2.13;;;;;;;21.88;27.60;101724.53;5024390;28;20053;-69
2022/02/07 09:18:40;;;;;;;11.65;3.45;;;;;;;21.85;27.35;101708.97;5022233;28;19928;-69
2022/02/07 09:21:08;;;;;;;2.85;1.90;;;;;;;22.23;27.49;101717.81;5021639;28;20136;-69
2022/02/07 09:23:37;;;;;;;4.75;3.10;;;;;;;22.00;26.52;101716.22;5021457;28;20080;-69
2022/02/07 09:26:04;;;;;;;4.25;2.90;;;;;;;21.65;25.86;101727.47;5024181;28;20571;-70
2022/02/07 09:28:32;;;;;;;5.35;3.13;;;;;;;21.32;25.36;101728.91;5030345;28;20041;-69
2022/02/07 09:31:01;;;;;;;;;;;;;;;20.85;25.40;101734.09;5029426;28;20049;-68
2022/02/07 09:33:28;;;;;;;6.82;2.88;;;;;;;21.05;25.66;101711.69;5018628;28;19931;-69
2022/02/07 09:36:00;;;;;;;3.42;1.88;;;;;;;21.36;25.44;101736.47;5022453;28;20489;-69
2022/02/07 09:38:27;;;;;;;4.43;2.40;;;;;;;21.03;25.08;101728.22;5023753;28;20506;-68
2022/02/07 09:40:54;;;;;;;4.35;2.30;;;;;;;21.44;25.20;101743.41;5021002;28;20148;-71
2022/02/07 09:43:26;;;;;;;4.88;2.60;;;;;;;21.84;24.87;101723.50;5023013;28;20049;-71
2022/02/07 09:45:54;;;;;;;3.10;2.20;;;;;;;21.49;23.83;101746.94;5018719;28;20530;-69
2022/02/07 09:48:21;;;;;;;5.10;2.97;;;;;;;21.41;24.72;101739.19;5025404;28;20057;-71
2022/02/07 09:50:49;;;;;;;3.15;2.47;;;;;;;21.09;24.98;101713.88;5027621;28;20575;-71
2022/02/07 09:53:17;;;;;;;4.38;2.97;;;;;;;20.91;24.79;101739.31;5021592;28;20487;-70
2022/02/07 09:55:45;;;;;;;4.90;2.92;;;;;;;21.48;25.22;101738.75;5023110;28;20144;-68
2022/02/07 09:58:14;;;;;;;10.48;3.92;;;;;;;21.68;24.53;101746.72;5024286;28;20137;-69
2022/02/07 10:00:41;;;;;;;;;;;;;;;20.90;24.52;101740.50;5027356;28;20084;-69
2022/02/07 10:19:21;;;;;;;8.10;2.42;;;;;;;20.50;24.87;101723.28;5015706;28;20060;-68
2022/02/07 10:44:43;;;;;;;2.42;1.92;;;;;;;22.28;23.22;101756.66;5017916;28;20045;-69
2022/02/07 10:47:24;;;;;;;7.38;2.30;;;;;;;22.44;22.82;101755.00;5026569;28;20045;-68
2022/02/07 10:50:00;;;;;;;3.95;1.75;;;;;;;22.57;22.97;101763.75;5019261;28;20140;-68
2022/02/07 10:52:28;;;;;;;4.45;2.47;;;;;;;22.78;23.24;101756.22;5017681;28;20084;-70
2022/02/07 10:54:57;;;;;;;5.25;2.38;;;;;;;23.38;23.08;101768.75;5018288;28;20063;-69
2022/02/07 10:57:27;;;;;;;5.68;2.42;;;;;;;24.10;22.80;101775.59;5020601;28;20053;-69
2022/02/07 10:59:54;;;;;;;3.80;2.30;;;;;;;24.01;22.78;101764.25;5022805;28;20072;-69
2022/02/07 11:05:23;;;;;;;4.28;2.72;;;;;;;25.09;22.59;101777.97;5025529;28;20046;-69
2022/02/07 11:08:04;;;;;;;4.18;2.80;;;;;;;25.63;22.50;101772.22;5018069;28;20060;-69
2022/02/07 11:10:51;;;;;;;4.38;2.78;;;;;;;26.00;22.08;101772.34;5017996;28;20184;-70
2022/02/07 11:16:19;;;;;;;6.50;2.97;;;;;;;26.82;21.82;101771.34;5018948;28;20053;-69
2022/02/07 11:21:48;;;;;;;4.38;2.83;;;;;;;27.24;21.50;101742.28;5017166;28;20084;-69
2022/02/07 11:25:16;;;;;;;6.03;3.38;;;;;;;27.29;20.51;101759.25;5038433;28;20052;-67
2022/02/07 11:27:38;;;;;;;3.83;3.20;;;;;;;26.78;20.60;101750.34;5020136;28;20630;-69
2022/02/07 11:30:16;;;;;;;4.85;2.72;;;;;;;26.46;20.53;101750.09;5016127;28;20511;-69
2022/02/07 11:32:46;;;;;;;10.63;3.03;;;;;;;26.30;20.31;101774.97;5022180;28;20073;-69
2022/02/07 11:35:24;;;;;;;5.22;2.83;;;;;;;26.14;19.83;101747.03;5022075;28;20136;-69
2022/02/07 11:38:05;;;;;;;8.20;3.13;;;;;;;25.76;20.08;101744.50;5020312;28;20137;-69
2022/02/07 11:40:33;;;;;;;6.05;3.50;;;;;;;25.72;19.88;101718.63;5019175;28;20140;-70
2022/02/07 11:43:17;;;;;;;3.75;2.63;;;;;;;25.70;20.18;101720.97;5020470;28;20137;-69
2022/02/07 11:46:03;;;;;;;3.80;2.97;;;;;;;25.80;20.02;101719.72;5024229;28;20080;-69
2022/02/07 11:48:45;;;;;;;6.18;3.65;;;;;;;25.47;19.58;101705.44;5023647;28;20081;-69
2022/02/07 11:51:15;;;;;;;5.13;3.10;;;;;;;25.60;19.76;101720.63;5019570;28;20548;-70
2022/02/07 11:53:57;;;;;;;4.32;3.22;;;;;;;25.85;19.48;101718.69;5017773;28;20050;-70
2022/02/07 11:56:53;;;;;;;6.82;3.15;;;;;;;25.71;19.69;101696.94;5019001;28;20085;-69
2022/02/07 11:59:39;;;;;;;3.13;2.75;;;;;;;25.37;19.07;101743.94;5017291;28;20057;-69
2022/02/07 12:02:17;;;;;;;3.22;2.17;;;;;;;25.55;19.25;101715.97;5014332;28;20119;-69
2022/02/07 12:04:44;;;;;;;2.38;2.17;;;;;;;25.88;19.24;101712.22;5016731;28;20041;-70
2022/02/07 12:07:11;;;;;;;3.33;2.92;;;;;;;26.52;18.90;101711.47;5022977;28;20084;-68
2022/02/07 12:12:46;;;;;;;4.03;2.85;;;;;;;28.06;18.24;101696.53;5017187;28;20499;-69
2022/02/07 12:15:13;;;;;;;2.55;2.35;;;;;;;27.98;17.09;101699.63;5028706;28;20084;-69
2022/02/07 12:17:49;;;;;;;3.25;2.95;;;;;;;27.53;17.19;101696.00;5019165;28;20042;-69
2022/02/07 12:20:18;;;;;;;3.85;3.22;;;;;;;27.68;17.02;101684.88;5012820;28;20276;-69
2022/02/07 12:23:04;;;;;;;4.38;3.45;;;;;;;27.72;16.97;101692.38;5022999;28;20439;-68
2022/02/07 12:25:51;;;;;;;3.47;2.80;;;;;;;28.02;16.75;101683.31;5017236;28;20041;-68
2022/02/07 12:28:38;;;;;;;5.93;3.38;;;;;;;28.00;16.52;101657.00;5020860;28;20046;-68
2022/02/07 12:31:26;;;;;;;4.03;3.17;;;;;;;28.28;16.06;101674.09;5012806;28;20064;-68
2022/02/07 12:34:03;;;;;;;4.10;3.10;;;;;;;28.46;16.33;101666.75;5016924;28;20085;-69
2022/02/07 12:36:35;;;;;;;4.95;2.90;;;;;;;28.40;15.55;101613.66;5019774;28;20206;-69
2022/02/07 12:39:06;;;;;;;3.70;2.70;;;;;;;28.82;15.67;101658.88;5021643;28;20045;-70
2022/02/07 12:41:33;;;;;;;3.60;3.22;;;;;;;28.75;15.12;101652.97;5019890;28;20182;-69
2022/02/07 12:44:03;;;;;;;4.70;3.35;;;;;;;28.94;15.10;101655.84;5023177;28;20513;-69
2022/02/07 12:46:32;;;;;;;4.43;3.03;;;;;;;29.41;15.61;101651.84;5022985;28;20061;-69
2022/02/07 12:49:11;;;;;;;3.65;2.95;;;;;;;30.01;15.29;101627.34;5023409;28;20054;-70
2022/02/07 12:51:46;;;;;;;5.57;3.00;;;;;;;30.17;14.63;101642.41;5021908;28;20113;-69
2022/02/07 12:54:16;;;;;;;6.63;3.47;;;;;;;30.48;14.89;101626.81;5020610;28;20099;-68
2022/02/07 12:56:44;;;;;;;4.25;3.45;;;;;;;31.19;14.68;101617.38;5021877;28;20136;-70
2022/02/07 12:59:11;;;;;;;4.85;3.63;;;;;;;31.65;14.12;101622.75;5024594;28;20121;-69
2022/02/07 13:01:42;;;;;;;3.50;2.90;;;;;;;32.01;13.53;101621.84;5024754;28;20051;-70
2022/02/07 13:04:20;;;;;;;9.18;3.40;;;;;;;31.09;13.31;101604.50;5018059;28;20469;-69
2022/02/07 13:06:52;;;;;;;4.63;3.25;;;;;;;31.46;13.44;101595.00;5022756;28;20046;-69
2022/02/07 13:09:31;;;;;;;3.78;3.38;;;;;;;31.02;13.21;101573.53;5028102;28;20048;-69
2022/02/07 13:14:32;;;;;;;4.13;2.78;;;;;;;30.67;13.37;101605.66;5026614;28;20508;-69
2022/02/07 13:16:59;;;;;;;3.38;2.75;;;;;;;31.03;13.95;101586.72;5029638;28;20084;-69
2022/02/07 13:19:28;;;;;;;5.45;3.38;;;;;;;31.81;13.33;101598.13;5024110;28;20132;-70
2022/02/07 13:21:55;;;;;;;5.97;3.30;;;;;;;32.52;13.27;101603.56;5031481;28;20495;-70
2022/02/07 13:24:30;;;;;;;3.95;3.03;;;;;;;32.62;12.93;101573.03;5027811;28;20132;-69
2022/02/07 13:27:00;;;;;;;3.70;3.08;;;;;;;32.84;12.96;101570.19;5024081;28;20120;-69
2022/02/07 13:29:42;;;;;;;5.85;2.92;;;;;;;32.98;12.75;101581.81;5026641;28;20052;-68
2022/02/07 13:32:18;;;;;;;3.38;2.95;;;;;;;33.47;12.48;101583.94;5025016;28;20056;-68
2022/02/07 13:34:50;;;;;;;3.50;2.05;;;;;;;33.09;12.33;101555.78;5020983;28;20132;-70
2022/02/07 13:37:26;;;;;;;3.17;1.42;;;;;;;30.67;13.35;101553.75;5024356;28;20045;-70
2022/02/07 13:40:08;;;;;;;5.88;1.63;;;;;;;28.05;14.85;101550.50;5028930;28;20049;-69
2022/02/07 13:42:43;;;;;;;3.58;2.22;;;;;;;26.85;15.74;101547.91;5031972;28;20045;-69
2022/02/07 13:45:13;;;;;;;4.10;2.15;;;;;;;26.06;16.78;101541.91;5032287;28;20132;-70
2022/02/07 13:47:44;;;;;;;3.30;2.08;;;;;;;25.21;17.81;101515.06;5028188;28;20128;-69
2022/02/07 13:50:22;;;;;;;10.50;3.22;;;;;;;24.74;18.60;101538.31;5023436;28;20390;-69
2022/02/07 13:52:56;;;;;;;5.45;3.30;;;;;;;24.27;19.13;101532.91;5033292;28;20132;-70
2022/02/07 13:55:40;;;;;;;4.70;2.65;;;;;;;23.77;19.41;101522.41;5042694;28;20030;-69
2022/02/07 13:58:33;;;;;;;5.65;2.72;;;;;;;23.25;19.61;101524.69;5043176;28;20053;-69
2022/02/07 14:01:14;;;;;;;4.30;2.40;;;;;;;23.01;20.11;101519.63;5031110;28;20148;-68
2022/02/07 14:03:49;;;;;;;5.63;2.38;;;;;;;22.79;20.81;101521.53;5023798;28;20405;-70
2022/02/07 14:06:20;;;;;;;3.47;2.00;;;;;;;22.56;20.61;101512.38;5031660;28;20061;-69
2022/02/07 14:08:58;;;;;;;3.10;1.77;;;;;;;22.35;21.05;101509.41;5020075;28;20100;-70
2022/02/07 14:11:30;;;;;;;5.10;2.13;;;;;;;22.11;21.32;101494.84;5026246;28;20099;-69
2022/02/07 14:14:02;;;;;;;3.50;1.80;;;;;;;21.97;21.48;101490.16;5022275;28;20060;-69
2022/02/07 14:16:31;;;;;;;3.40;1.80;;;;;;;21.78;21.95;101501.06;5023924;28;20053;-70
2022/02/07 14:19:08;;;;;;;3.67;2.28;;;;;;;21.65;21.78;101504.91;5025412;28;20049;-70
2022/02/07 14:21:35;;;;;;;4.43;1.88;;;;;;;21.55;22.10;101499.53;5025234;28;20092;-70
2022/02/07 14:24:02;;;;;;;7.95;2.53;;;;;;;21.33;22.23;101460.66;5028620;28;20091;-69
2022/02/07 14:26:49;;;;;;;6.20;2.75;;;;;;;21.41;22.33;101482.63;5022456;28;20059;-71
2022/02/07 14:29:16;;;;;;;5.90;2.78;;;;;;;21.28;22.35;101473.03;5025201;28;21833;-69